sensor_id;sensor_type;location;lat;lon;timestamp;P1;durP1;ratioP1;P2;durP2;ratioP2
8622;SDS011;4349;47.552;8.904;2023-04-25T00:00:41;3.40;;;3.10;;
8622;SDS011;4349;47.552;8.904;2023-04-25T00:03:08;3.37;;;3.10;;
8622;SDS011;4349;47.552;8.904;2023-04-25T00:05:36;3.30;;;3.03;;
8622;SDS011;4349;47.552;8.904;2023-04-25T00:08:05;3.57;;;3.37;;
8622;SDS011;4349;47.552;8.904;2023-04-25T00:10:32;2.80;;;2.70;;
8622;SDS011;4349;47.552;8.904;2023-04-25T00:13:00;3.40;;;3.07;;
8622;SDS011;4349;47.552;8.904;2023-04-25T00:15:29;3.67;;;2.70;;
8622;SDS011;4349;47.552;8.904;2023-04-25T00:17:57;2.80;;;2.70;;
8622;SDS011;4349;47.552;8.904;2023-04-25T00:20:24;3.23;;;3.03;;
8622;SDS011;4349;47.552;8.904;2023-04-25T00:22:52;3.30;;;3.00;;
8622;SDS011;4349;47.552;8.904;2023-04-25T00:25:19;4.37;;;3.00;;
8622;SDS011;4349;47.552;8.904;2023-04-25T00:27:47;3.00;;;2.90;;
8622;SDS011;4349;47.552;8.904;2023-04-25T00:30:14;2.90;;;2.80;;
8622;SDS011;4349;47.552;8.904;2023-04-25T00:32:43;3.07;;;2.87;;
8622;SDS011;4349;47.552;8.904;2023-04-25T00:35:12;3.73;;;3.37;;
8622;SDS011;4349;47.552;8.904;2023-04-25T00:37:40;4.77;;;3.23;;
8622;SDS011;4349;47.552;8.904;2023-04-25T00:40:08;2.93;;;2.83;;
8622;SDS011;4349;47.552;8.904;2023-04-25T00:42:35;3.40;;;3.20;;
8622;SDS011;4349;47.552;8.904;2023-04-25T00:45:04;5.90;;;3.07;;
8622;SDS011;4349;47.552;8.904;2023-04-25T00:47:32;3.87;;;3.40;;
8622;SDS011;4349;47.552;8.904;2023-04-25T00:50:02;3.43;;;3.20;;
8622;SDS011;4349;47.552;8.904;2023-04-25T00:52:30;5.13;;;3.57;;
8622;SDS011;4349;47.552;8.904;2023-04-25T00:54:57;3.87;;;3.50;;
8622;SDS011;4349;47.552;8.904;2023-04-25T00:57:25;3.40;;;3.20;;
8622;SDS011;4349;47.552;8.904;2023-04-25T00:59:52;3.80;;;3.50;;
8622;SDS011;4349;47.552;8.904;2023-04-25T01:02:20;3.70;;;3.40;;
8622;SDS011;4349;47.552;8.904;2023-04-25T01:04:48;3.03;;;2.83;;
8622;SDS011;4349;47.552;8.904;2023-04-25T01:07:17;3.50;;;3.30;;
8622;SDS011;4349;47.552;8.904;2023-04-25T01:09:46;4.20;;;3.27;;
8622;SDS011;4349;47.552;8.904;2023-04-25T01:12:14;3.73;;;3.40;;
8622;SDS011;4349;47.552;8.904;2023-04-25T01:14:41;3.93;;;3.73;;
8622;SDS011;4349;47.552;8.904;2023-04-25T01:17:09;4.93;;;4.10;;
8622;SDS011;4349;47.552;8.904;2023-04-25T01:19:36;3.87;;;3.57;;
8622;SDS011;4349;47.552;8.904;2023-04-25T01:22:05;3.47;;;3.37;;
8622;SDS011;4349;47.552;8.904;2023-04-25T01:24:32;4.70;;;3.90;;
8622;SDS011;4349;47.552;8.904;2023-04-25T01:27:00;4.03;;;3.73;;
8622;SDS011;4349;47.552;8.904;2023-04-25T01:29:28;3.93;;;3.57;;
8622;SDS011;4349;47.552;8.904;2023-04-25T01:31:56;3.73;;;3.53;;
8622;SDS011;4349;47.552;8.904;2023-04-25T01:34:24;4.50;;;4.10;;
8622;SDS011;4349;47.552;8.904;2023-04-25T01:36:52;4.30;;;3.90;;
8622;SDS011;4349;47.552;8.904;2023-04-25T01:39:21;4.53;;;3.93;;
8622;SDS011;4349;47.552;8.904;2023-04-25T01:41:48;4.40;;;4.03;;
8622;SDS011;4349;47.552;8.904;2023-04-25T01:44:16;4.47;;;3.77;;
8622;SDS011;4349;47.552;8.904;2023-04-25T01:46:43;4.97;;;4.40;;
8622;SDS011;4349;47.552;8.904;2023-04-25T01:49:11;9.80;;;4.30;;
8622;SDS011;4349;47.552;8.904;2023-04-25T01:51:40;8.57;;;4.63;;
8622;SDS011;4349;47.552;8.904;2023-04-25T01:54:08;4.13;;;3.80;;
8622;SDS011;4349;47.552;8.904;2023-04-25T01:56:37;4.53;;;4.23;;
8622;SDS011;4349;47.552;8.904;2023-04-25T01:59:06;4.50;;;4.10;;
8622;SDS011;4349;47.552;8.904;2023-04-25T02:02:04;4.30;;;3.90;;
8622;SDS011;4349;47.552;8.904;2023-04-25T02:04:32;4.60;;;4.20;;
8622;SDS011;4349;47.552;8.904;2023-04-25T02:07:01;4.43;;;3.93;;
8622;SDS011;4349;47.552;8.904;2023-04-25T02:09:38;5.37;;;4.27;;
8622;SDS011;4349;47.552;8.904;2023-04-25T02:12:09;5.53;;;4.30;;
8622;SDS011;4349;47.552;8.904;2023-04-25T02:14:59;4.27;;;4.07;;
8622;SDS011;4349;47.552;8.904;2023-04-25T02:17:40;3.87;;;3.67;;
8622;SDS011;4349;47.552;8.904;2023-04-25T02:20:08;3.90;;;3.70;;
8622;SDS011;4349;47.552;8.904;2023-04-25T02:22:38;4.20;;;3.80;;
8622;SDS011;4349;47.552;8.904;2023-04-25T02:25:06;4.13;;;3.70;;
8622;SDS011;4349;47.552;8.904;2023-04-25T02:27:36;4.17;;;3.87;;
8622;SDS011;4349;47.552;8.904;2023-04-25T02:30:03;4.43;;;4.03;;
8622;SDS011;4349;47.552;8.904;2023-04-25T02:32:32;3.93;;;3.60;;
8622;SDS011;4349;47.552;8.904;2023-04-25T02:35:01;3.60;;;3.30;;
8622;SDS011;4349;47.552;8.904;2023-04-25T02:37:30;3.40;;;3.20;;
8622;SDS011;4349;47.552;8.904;2023-04-25T02:39:57;4.00;;;3.70;;
8622;SDS011;4349;47.552;8.904;2023-04-25T02:42:25;4.53;;;3.63;;
8622;SDS011;4349;47.552;8.904;2023-04-25T02:44:54;3.93;;;3.70;;
8622;SDS011;4349;47.552;8.904;2023-04-25T02:47:21;3.67;;;3.30;;
8622;SDS011;4349;47.552;8.904;2023-04-25T02:49:49;3.53;;;3.33;;
8622;SDS011;4349;47.552;8.904;2023-04-25T02:52:16;3.43;;;3.23;;
8622;SDS011;4349;47.552;8.904;2023-04-25T02:54:50;4.80;;;4.00;;
8622;SDS011;4349;47.552;8.904;2023-04-25T02:57:18;3.50;;;3.30;;
8622;SDS011;4349;47.552;8.904;2023-04-25T02:59:45;3.80;;;3.40;;
8622;SDS011;4349;47.552;8.904;2023-04-25T03:02:14;3.70;;;3.43;;
8622;SDS011;4349;47.552;8.904;2023-04-25T03:04:42;3.50;;;3.30;;
8622;SDS011;4349;47.552;8.904;2023-04-25T03:07:09;3.80;;;3.50;;
8622;SDS011;4349;47.552;8.904;2023-04-25T03:09:37;4.00;;;3.70;;
8622;SDS011;4349;47.552;8.904;2023-04-25T03:12:05;3.90;;;3.63;;
8622;SDS011;4349;47.552;8.904;2023-04-25T03:14:33;3.50;;;3.30;;
8622;SDS011;4349;47.552;8.904;2023-04-25T03:17:00;3.63;;;3.47;;
8622;SDS011;4349;47.552;8.904;2023-04-25T03:19:29;4.13;;;3.70;;
8622;SDS011;4349;47.552;8.904;2023-04-25T03:21:57;3.80;;;3.50;;
8622;SDS011;4349;47.552;8.904;2023-04-25T03:24:24;3.57;;;3.27;;
8622;SDS011;4349;47.552;8.904;2023-04-25T03:26:53;3.63;;;3.43;;
8622;SDS011;4349;47.552;8.904;2023-04-25T03:29:20;3.67;;;3.37;;
8622;SDS011;4349;47.552;8.904;2023-04-25T03:31:50;3.53;;;3.33;;
8622;SDS011;4349;47.552;8.904;2023-04-25T03:34:18;3.90;;;3.33;;
8622;SDS011;4349;47.552;8.904;2023-04-25T03:36:49;4.30;;;3.90;;
8622;SDS011;4349;47.552;8.904;2023-04-25T03:39:16;4.87;;;3.63;;
8622;SDS011;4349;47.552;8.904;2023-04-25T03:41:47;6.03;;;3.80;;
8622;SDS011;4349;47.552;8.904;2023-04-25T03:44:17;4.33;;;3.60;;
8622;SDS011;4349;47.552;8.904;2023-04-25T03:46:44;3.60;;;3.30;;
8622;SDS011;4349;47.552;8.904;2023-04-25T03:49:12;4.13;;;3.90;;
8622;SDS011;4349;47.552;8.904;2023-04-25T03:52:05;4.70;;;3.80;;
8622;SDS011;4349;47.552;8.904;2023-04-25T03:54:38;4.10;;;3.80;;
8622;SDS011;4349;47.552;8.904;2023-04-25T03:57:14;4.20;;;3.90;;
8622;SDS011;4349;47.552;8.904;2023-04-25T03:59:42;4.10;;;3.80;;
8622;SDS011;4349;47.552;8.904;2023-04-25T04:02:12;3.73;;;3.53;;
8622;SDS011;4349;47.552;8.904;2023-04-25T04:04:40;4.13;;;3.73;;
8622;SDS011;4349;47.552;8.904;2023-04-25T04:07:11;4.70;;;4.30;;
8622;SDS011;4349;47.552;8.904;2023-04-25T04:09:41;3.80;;;3.60;;
8622;SDS011;4349;47.552;8.904;2023-04-25T04:12:14;4.57;;;3.60;;
8622;SDS011;4349;47.552;8.904;2023-04-25T04:14:42;5.23;;;3.67;;
8622;SDS011;4349;47.552;8.904;2023-04-25T04:17:09;4.20;;;3.90;;
8622;SDS011;4349;47.552;8.904;2023-04-25T04:19:36;6.67;;;4.70;;
8622;SDS011;4349;47.552;8.904;2023-04-25T04:22:11;5.00;;;4.60;;
8622;SDS011;4349;47.552;8.904;2023-04-25T04:24:39;4.87;;;4.47;;
8622;SDS011;4349;47.552;8.904;2023-04-25T04:27:11;5.20;;;4.50;;
8622;SDS011;4349;47.552;8.904;2023-04-25T04:29:45;4.17;;;3.83;;
8622;SDS011;4349;47.552;8.904;2023-04-25T04:32:17;4.03;;;3.67;;
8622;SDS011;4349;47.552;8.904;2023-04-25T04:34:45;3.93;;;3.73;;
8622;SDS011;4349;47.552;8.904;2023-04-25T04:37:16;7.13;;;4.40;;
8622;SDS011;4349;47.552;8.904;2023-04-25T04:39:43;5.90;;;4.50;;
8622;SDS011;4349;47.552;8.904;2023-04-25T04:42:24;4.30;;;3.93;;
8622;SDS011;4349;47.552;8.904;2023-04-25T04:45:01;4.30;;;4.00;;
8622;SDS011;4349;47.552;8.904;2023-04-25T04:47:58;4.30;;;3.97;;
8622;SDS011;4349;47.552;8.904;2023-04-25T04:50:46;4.77;;;4.43;;
8622;SDS011;4349;47.552;8.904;2023-04-25T04:53:35;4.70;;;4.30;;
8622;SDS011;4349;47.552;8.904;2023-04-25T04:56:26;5.33;;;4.90;;
8622;SDS011;4349;47.552;8.904;2023-04-25T04:59:13;4.80;;;4.40;;
8622;SDS011;4349;47.552;8.904;2023-04-25T05:01:48;4.87;;;4.40;;
8622;SDS011;4349;47.552;8.904;2023-04-25T05:04:16;4.87;;;4.43;;
8622;SDS011;4349;47.552;8.904;2023-04-25T05:06:46;5.00;;;4.60;;
8622;SDS011;4349;47.552;8.904;2023-04-25T05:09:34;4.87;;;4.57;;
8622;SDS011;4349;47.552;8.904;2023-04-25T05:12:10;4.87;;;4.50;;
8622;SDS011;4349;47.552;8.904;2023-04-25T05:14:56;5.00;;;4.60;;
8622;SDS011;4349;47.552;8.904;2023-04-25T05:17:39;4.90;;;4.30;;
8622;SDS011;4349;47.552;8.904;2023-04-25T05:20:25;4.97;;;4.57;;
8622;SDS011;4349;47.552;8.904;2023-04-25T05:23:28;4.63;;;4.23;;
8622;SDS011;4349;47.552;8.904;2023-04-25T05:26:25;5.03;;;4.40;;
8622;SDS011;4349;47.552;8.904;2023-04-25T05:29:13;4.87;;;4.47;;
8622;SDS011;4349;47.552;8.904;2023-04-25T05:32:04;4.73;;;4.40;;
8622;SDS011;4349;47.552;8.904;2023-04-25T05:34:33;4.40;;;4.10;;
8622;SDS011;4349;47.552;8.904;2023-04-25T05:37:04;4.90;;;4.40;;
8622;SDS011;4349;47.552;8.904;2023-04-25T05:39:36;5.00;;;4.40;;
8622;SDS011;4349;47.552;8.904;2023-04-25T05:42:13;5.00;;;4.60;;
8622;SDS011;4349;47.552;8.904;2023-04-25T05:44:56;5.27;;;4.83;;
8622;SDS011;4349;47.552;8.904;2023-04-25T05:47:32;5.23;;;4.73;;
8622;SDS011;4349;47.552;8.904;2023-04-25T05:50:05;4.73;;;4.30;;
8622;SDS011;4349;47.552;8.904;2023-04-25T05:52:47;4.27;;;3.97;;
8622;SDS011;4349;47.552;8.904;2023-04-25T05:55:28;4.63;;;4.30;;
8622;SDS011;4349;47.552;8.904;2023-04-25T05:57:58;4.87;;;4.37;;
8622;SDS011;4349;47.552;8.904;2023-04-25T06:00:26;5.77;;;4.00;;
8622;SDS011;4349;47.552;8.904;2023-04-25T06:02:54;4.73;;;4.30;;
8622;SDS011;4349;47.552;8.904;2023-04-25T06:05:22;5.13;;;4.10;;
8622;SDS011;4349;47.552;8.904;2023-04-25T06:07:50;4.93;;;4.40;;
8622;SDS011;4349;47.552;8.904;2023-04-25T06:10:17;4.93;;;4.40;;
8622;SDS011;4349;47.552;8.904;2023-04-25T06:12:45;4.97;;;4.57;;
8622;SDS011;4349;47.552;8.904;2023-04-25T06:15:15;4.63;;;4.33;;
8622;SDS011;4349;47.552;8.904;2023-04-25T06:17:54;5.77;;;4.40;;
8622;SDS011;4349;47.552;8.904;2023-04-25T06:20:21;6.13;;;4.90;;
8622;SDS011;4349;47.552;8.904;2023-04-25T06:22:51;7.57;;;4.87;;
8622;SDS011;4349;47.552;8.904;2023-04-25T06:25:25;5.47;;;5.07;;
8622;SDS011;4349;47.552;8.904;2023-04-25T06:27:53;5.30;;;4.80;;
8622;SDS011;4349;47.552;8.904;2023-04-25T06:30:22;5.30;;;4.90;;
8622;SDS011;4349;47.552;8.904;2023-04-25T06:32:56;5.80;;;5.20;;
8622;SDS011;4349;47.552;8.904;2023-04-25T06:35:24;5.63;;;4.87;;
8622;SDS011;4349;47.552;8.904;2023-04-25T06:37:51;6.73;;;5.03;;
8622;SDS011;4349;47.552;8.904;2023-04-25T06:40:21;5.77;;;4.60;;
8622;SDS011;4349;47.552;8.904;2023-04-25T06:42:49;5.03;;;4.53;;
8622;SDS011;4349;47.552;8.904;2023-04-25T06:45:32;5.50;;;4.77;;
8622;SDS011;4349;47.552;8.904;2023-04-25T06:48:00;5.13;;;4.70;;
8622;SDS011;4349;47.552;8.904;2023-04-25T06:50:27;7.50;;;4.80;;
8622;SDS011;4349;47.552;8.904;2023-04-25T06:52:55;5.67;;;5.07;;
8622;SDS011;4349;47.552;8.904;2023-04-25T06:55:22;5.50;;;5.00;;
8622;SDS011;4349;47.552;8.904;2023-04-25T06:58:09;7.63;;;5.20;;
8622;SDS011;4349;47.552;8.904;2023-04-25T07:00:57;3.40;;;3.20;;
8622;SDS011;4349;47.552;8.904;2023-04-25T07:03:25;4.30;;;3.97;;
8622;SDS011;4349;47.552;8.904;2023-04-25T07:05:59;6.20;;;4.90;;
8622;SDS011;4349;47.552;8.904;2023-04-25T07:08:28;6.83;;;6.00;;
8622;SDS011;4349;47.552;8.904;2023-04-25T07:10:57;5.70;;;5.20;;
8622;SDS011;4349;47.552;8.904;2023-04-25T07:13:24;4.00;;;3.70;;
8622;SDS011;4349;47.552;8.904;2023-04-25T07:15:52;3.33;;;3.03;;
8622;SDS011;4349;47.552;8.904;2023-04-25T07:18:23;2.87;;;2.70;;
8622;SDS011;4349;47.552;8.904;2023-04-25T07:20:51;3.37;;;3.07;;
8622;SDS011;4349;47.552;8.904;2023-04-25T07:23:18;3.20;;;2.90;;
8622;SDS011;4349;47.552;8.904;2023-04-25T07:25:46;3.50;;;3.30;;
8622;SDS011;4349;47.552;8.904;2023-04-25T07:28:18;3.47;;;3.27;;
8622;SDS011;4349;47.552;8.904;2023-04-25T07:30:46;3.40;;;3.10;;
8622;SDS011;4349;47.552;8.904;2023-04-25T07:33:14;3.23;;;3.03;;
8622;SDS011;4349;47.552;8.904;2023-04-25T07:35:42;3.60;;;3.40;;
8622;SDS011;4349;47.552;8.904;2023-04-25T07:38:10;2.93;;;2.73;;
8622;SDS011;4349;47.552;8.904;2023-04-25T07:40:38;5.80;;;3.50;;
8622;SDS011;4349;47.552;8.904;2023-04-25T07:43:07;4.90;;;3.50;;
8622;SDS011;4349;47.552;8.904;2023-04-25T07:45:41;4.43;;;3.80;;
8622;SDS011;4349;47.552;8.904;2023-04-25T07:48:10;4.40;;;3.47;;
8622;SDS011;4349;47.552;8.904;2023-04-25T07:50:39;4.53;;;4.03;;
8622;SDS011;4349;47.552;8.904;2023-04-25T07:53:08;7.43;;;5.00;;
8622;SDS011;4349;47.552;8.904;2023-04-25T07:55:43;4.07;;;3.80;;
8622;SDS011;4349;47.552;8.904;2023-04-25T07:58:14;6.10;;;4.30;;
8622;SDS011;4349;47.552;8.904;2023-04-25T08:00:44;4.77;;;3.93;;
8622;SDS011;4349;47.552;8.904;2023-04-25T08:03:41;5.73;;;3.57;;
8622;SDS011;4349;47.552;8.904;2023-04-25T08:06:16;3.57;;;3.37;;
8622;SDS011;4349;47.552;8.904;2023-04-25T08:09:06;3.60;;;3.30;;
8622;SDS011;4349;47.552;8.904;2023-04-25T08:11:37;3.73;;;3.00;;
8622;SDS011;4349;47.552;8.904;2023-04-25T08:14:06;2.40;;;2.30;;
8622;SDS011;4349;47.552;8.904;2023-04-25T08:16:34;2.23;;;2.10;;
8622;SDS011;4349;47.552;8.904;2023-04-25T08:19:02;2.10;;;1.90;;
8622;SDS011;4349;47.552;8.904;2023-04-25T08:21:29;2.20;;;2.10;;
8622;SDS011;4349;47.552;8.904;2023-04-25T08:24:00;2.17;;;2.00;;
8622;SDS011;4349;47.552;8.904;2023-04-25T08:26:34;2.40;;;2.20;;
8622;SDS011;4349;47.552;8.904;2023-04-25T08:29:03;3.50;;;2.43;;
8622;SDS011;4349;47.552;8.904;2023-04-25T08:31:31;2.23;;;2.13;;
8622;SDS011;4349;47.552;8.904;2023-04-25T08:34:01;2.83;;;1.80;;
8622;SDS011;4349;47.552;8.904;2023-04-25T08:36:36;2.10;;;2.00;;
8622;SDS011;4349;47.552;8.904;2023-04-25T08:39:18;2.00;;;1.97;;
8622;SDS011;4349;47.552;8.904;2023-04-25T08:42:08;2.50;;;2.30;;
8622;SDS011;4349;47.552;8.904;2023-04-25T08:44:37;2.37;;;2.20;;
8622;SDS011;4349;47.552;8.904;2023-04-25T08:47:05;2.30;;;2.10;;
8622;SDS011;4349;47.552;8.904;2023-04-25T08:49:40;2.30;;;2.20;;
8622;SDS011;4349;47.552;8.904;2023-04-25T08:52:12;2.40;;;2.03;;
8622;SDS011;4349;47.552;8.904;2023-04-25T08:54:41;2.40;;;2.30;;
8622;SDS011;4349;47.552;8.904;2023-04-25T08:57:12;2.10;;;1.93;;
8622;SDS011;4349;47.552;8.904;2023-04-25T08:59:39;2.30;;;2.20;;
8622;SDS011;4349;47.552;8.904;2023-04-25T09:02:11;3.07;;;2.30;;
8622;SDS011;4349;47.552;8.904;2023-04-25T09:04:42;2.47;;;2.30;;
8622;SDS011;4349;47.552;8.904;2023-04-25T09:07:10;2.93;;;2.67;;
8622;SDS011;4349;47.552;8.904;2023-04-25T09:09:38;2.60;;;2.40;;
8622;SDS011;4349;47.552;8.904;2023-04-25T09:12:05;2.60;;;1.90;;
8622;SDS011;4349;47.552;8.904;2023-04-25T09:14:35;2.90;;;2.27;;
8622;SDS011;4349;47.552;8.904;2023-04-25T09:17:07;2.30;;;2.20;;
8622;SDS011;4349;47.552;8.904;2023-04-25T09:19:55;2.50;;;2.30;;
8622;SDS011;4349;47.552;8.904;2023-04-25T09:22:29;3.27;;;2.50;;
8622;SDS011;4349;47.552;8.904;2023-04-25T09:24:57;2.70;;;2.60;;
8622;SDS011;4349;47.552;8.904;2023-04-25T09:27:27;2.73;;;2.50;;
8622;SDS011;4349;47.552;8.904;2023-04-25T09:30:05;3.20;;;2.60;;
8622;SDS011;4349;47.552;8.904;2023-04-25T09:32:54;2.80;;;2.70;;
8622;SDS011;4349;47.552;8.904;2023-04-25T09:35:23;3.37;;;2.80;;
8622;SDS011;4349;47.552;8.904;2023-04-25T09:37:52;3.10;;;2.53;;
8622;SDS011;4349;47.552;8.904;2023-04-25T09:40:39;2.30;;;2.20;;
8622;SDS011;4349;47.552;8.904;2023-04-25T09:43:18;2.17;;;2.07;;
8622;SDS011;4349;47.552;8.904;2023-04-25T09:45:49;1.70;;;1.60;;
8622;SDS011;4349;47.552;8.904;2023-04-25T09:48:18;1.80;;;1.70;;
8622;SDS011;4349;47.552;8.904;2023-04-25T09:51:03;1.50;;;1.50;;
8622;SDS011;4349;47.552;8.904;2023-04-25T09:53:31;1.40;;;1.40;;
8622;SDS011;4349;47.552;8.904;2023-04-25T09:56:12;1.20;;;1.20;;
8622;SDS011;4349;47.552;8.904;2023-04-25T09:58:40;1.30;;;1.30;;
8622;SDS011;4349;47.552;8.904;2023-04-25T10:01:10;1.47;;;1.47;;
8622;SDS011;4349;47.552;8.904;2023-04-25T10:03:51;1.27;;;1.27;;
8622;SDS011;4349;47.552;8.904;2023-04-25T10:06:47;1.20;;;1.20;;
8622;SDS011;4349;47.552;8.904;2023-04-25T10:09:16;1.40;;;1.40;;
8622;SDS011;4349;47.552;8.904;2023-04-25T10:11:44;1.20;;;1.20;;
8622;SDS011;4349;47.552;8.904;2023-04-25T10:14:14;1.17;;;1.17;;
8622;SDS011;4349;47.552;8.904;2023-04-25T10:16:43;1.30;;;1.30;;
8622;SDS011;4349;47.552;8.904;2023-04-25T10:19:11;1.27;;;1.23;;
8622;SDS011;4349;47.552;8.904;2023-04-25T10:21:40;1.30;;;1.30;;
8622;SDS011;4349;47.552;8.904;2023-04-25T10:24:11;1.17;;;1.17;;
8622;SDS011;4349;47.552;8.904;2023-04-25T10:26:39;1.10;;;1.10;;
8622;SDS011;4349;47.552;8.904;2023-04-25T10:29:07;1.27;;;1.10;;
8622;SDS011;4349;47.552;8.904;2023-04-25T10:31:44;1.33;;;1.33;;
8622;SDS011;4349;47.552;8.904;2023-04-25T10:34:13;1.17;;;1.17;;
8622;SDS011;4349;47.552;8.904;2023-04-25T10:36:40;1.10;;;1.10;;
8622;SDS011;4349;47.552;8.904;2023-04-25T10:39:08;1.00;;;1.00;;
8622;SDS011;4349;47.552;8.904;2023-04-25T10:41:45;1.13;;;1.13;;
8622;SDS011;4349;47.552;8.904;2023-04-25T10:44:13;1.13;;;1.07;;
8622;SDS011;4349;47.552;8.904;2023-04-25T10:46:41;1.30;;;1.10;;
8622;SDS011;4349;47.552;8.904;2023-04-25T10:49:08;0.90;;;0.90;;
8622;SDS011;4349;47.552;8.904;2023-04-25T10:51:40;1.00;;;0.97;;
8622;SDS011;4349;47.552;8.904;2023-04-25T10:54:16;1.07;;;1.07;;
8622;SDS011;4349;47.552;8.904;2023-04-25T10:56:46;0.90;;;0.90;;
8622;SDS011;4349;47.552;8.904;2023-04-25T10:59:16;1.00;;;1.00;;
8622;SDS011;4349;47.552;8.904;2023-04-25T11:01:44;1.10;;;1.00;;
8622;SDS011;4349;47.552;8.904;2023-04-25T11:04:21;1.97;;;0.93;;
8622;SDS011;4349;47.552;8.904;2023-04-25T11:07:00;1.00;;;1.00;;
8622;SDS011;4349;47.552;8.904;2023-04-25T11:09:33;0.90;;;0.90;;
8622;SDS011;4349;47.552;8.904;2023-04-25T11:12:00;1.00;;;1.00;;
8622;SDS011;4349;47.552;8.904;2023-04-25T11:14:28;1.10;;;1.10;;
8622;SDS011;4349;47.552;8.904;2023-04-25T11:16:55;0.97;;;0.90;;
8622;SDS011;4349;47.552;8.904;2023-04-25T11:19:26;0.80;;;0.80;;
8622;SDS011;4349;47.552;8.904;2023-04-25T11:21:54;1.00;;;1.00;;
8622;SDS011;4349;47.552;8.904;2023-04-25T11:24:26;0.90;;;0.90;;
8622;SDS011;4349;47.552;8.904;2023-04-25T11:26:54;0.90;;;0.90;;
8622;SDS011;4349;47.552;8.904;2023-04-25T11:29:21;0.90;;;0.90;;
8622;SDS011;4349;47.552;8.904;2023-04-25T11:31:49;0.93;;;0.93;;
8622;SDS011;4349;47.552;8.904;2023-04-25T11:34:17;0.90;;;0.90;;
8622;SDS011;4349;47.552;8.904;2023-04-25T11:36:45;1.30;;;1.20;;
8622;SDS011;4349;47.552;8.904;2023-04-25T11:39:12;1.13;;;1.13;;
8622;SDS011;4349;47.552;8.904;2023-04-25T11:41:42;1.20;;;1.20;;
8622;SDS011;4349;47.552;8.904;2023-04-25T11:44:11;1.10;;;1.10;;
8622;SDS011;4349;47.552;8.904;2023-04-25T11:46:38;1.13;;;1.13;;
8622;SDS011;4349;47.552;8.904;2023-04-25T11:49:06;0.93;;;0.93;;
8622;SDS011;4349;47.552;8.904;2023-04-25T11:51:37;1.20;;;1.20;;
8622;SDS011;4349;47.552;8.904;2023-04-25T11:54:05;1.30;;;1.30;;
8622;SDS011;4349;47.552;8.904;2023-04-25T11:56:32;1.00;;;1.00;;
8622;SDS011;4349;47.552;8.904;2023-04-25T11:59:02;0.90;;;0.90;;
8622;SDS011;4349;47.552;8.904;2023-04-25T12:01:30;1.00;;;1.00;;
8622;SDS011;4349;47.552;8.904;2023-04-25T12:04:09;1.10;;;1.10;;
8622;SDS011;4349;47.552;8.904;2023-04-25T12:06:38;1.10;;;1.00;;
8622;SDS011;4349;47.552;8.904;2023-04-25T12:09:07;1.03;;;1.00;;
8622;SDS011;4349;47.552;8.904;2023-04-25T12:11:40;1.20;;;1.20;;
8622;SDS011;4349;47.552;8.904;2023-04-25T12:14:09;1.43;;;1.03;;
8622;SDS011;4349;47.552;8.904;2023-04-25T12:16:40;1.00;;;1.00;;
8622;SDS011;4349;47.552;8.904;2023-04-25T12:19:08;1.20;;;1.20;;
8622;SDS011;4349;47.552;8.904;2023-04-25T12:21:36;1.13;;;1.10;;
8622;SDS011;4349;47.552;8.904;2023-04-25T12:24:23;1.00;;;1.00;;
8622;SDS011;4349;47.552;8.904;2023-04-25T12:26:52;1.30;;;1.30;;
8622;SDS011;4349;47.552;8.904;2023-04-25T12:29:22;1.00;;;1.00;;
8622;SDS011;4349;47.552;8.904;2023-04-25T12:31:55;1.00;;;1.00;;
8622;SDS011;4349;47.552;8.904;2023-04-25T12:34:22;1.17;;;1.17;;
8622;SDS011;4349;47.552;8.904;2023-04-25T12:36:50;1.13;;;1.13;;
8622;SDS011;4349;47.552;8.904;2023-04-25T12:39:18;2.13;;;1.17;;
8622;SDS011;4349;47.552;8.904;2023-04-25T12:41:48;1.20;;;1.00;;
8622;SDS011;4349;47.552;8.904;2023-04-25T12:44:15;1.13;;;1.13;;
8622;SDS011;4349;47.552;8.904;2023-04-25T12:46:44;1.30;;;1.30;;
8622;SDS011;4349;47.552;8.904;2023-04-25T12:49:12;1.20;;;1.20;;
8622;SDS011;4349;47.552;8.904;2023-04-25T12:51:44;1.40;;;1.30;;
8622;SDS011;4349;47.552;8.904;2023-04-25T12:54:11;1.07;;;1.07;;
8622;SDS011;4349;47.552;8.904;2023-04-25T12:56:40;2.70;;;1.27;;
8622;SDS011;4349;47.552;8.904;2023-04-25T12:59:08;1.40;;;1.30;;
8622;SDS011;4349;47.552;8.904;2023-04-25T13:01:35;1.20;;;1.20;;
8622;SDS011;4349;47.552;8.904;2023-04-25T13:04:05;1.27;;;1.27;;
8622;SDS011;4349;47.552;8.904;2023-04-25T13:06:32;1.20;;;1.20;;
8622;SDS011;4349;47.552;8.904;2023-04-25T13:09:00;1.13;;;1.13;;
8622;SDS011;4349;47.552;8.904;2023-04-25T13:11:27;1.20;;;1.20;;
8622;SDS011;4349;47.552;8.904;2023-04-25T13:13:56;1.10;;;1.10;;
8622;SDS011;4349;47.552;8.904;2023-04-25T13:16:23;1.30;;;1.30;;
8622;SDS011;4349;47.552;8.904;2023-04-25T13:18:51;1.83;;;1.13;;
8622;SDS011;4349;47.552;8.904;2023-04-25T13:21:19;1.20;;;1.20;;
8622;SDS011;4349;47.552;8.904;2023-04-25T13:23:47;1.37;;;1.30;;
8622;SDS011;4349;47.552;8.904;2023-04-25T13:26:15;1.40;;;1.40;;
8622;SDS011;4349;47.552;8.904;2023-04-25T13:28:42;1.30;;;1.30;;
8622;SDS011;4349;47.552;8.904;2023-04-25T13:31:10;1.20;;;1.20;;
8622;SDS011;4349;47.552;8.904;2023-04-25T13:33:38;1.43;;;1.40;;
8622;SDS011;4349;47.552;8.904;2023-04-25T13:36:05;1.00;;;1.00;;
8622;SDS011;4349;47.552;8.904;2023-04-25T13:38:34;1.20;;;1.20;;
8622;SDS011;4349;47.552;8.904;2023-04-25T13:41:02;1.00;;;1.00;;
8622;SDS011;4349;47.552;8.904;2023-04-25T13:43:29;2.73;;;1.03;;
8622;SDS011;4349;47.552;8.904;2023-04-25T13:45:56;1.43;;;1.13;;
8622;SDS011;4349;47.552;8.904;2023-04-25T13:48:24;1.27;;;1.20;;
8622;SDS011;4349;47.552;8.904;2023-04-25T13:50:51;1.00;;;1.00;;
8622;SDS011;4349;47.552;8.904;2023-04-25T13:53:19;1.13;;;1.13;;
8622;SDS011;4349;47.552;8.904;2023-04-25T13:55:48;1.27;;;1.27;;
8622;SDS011;4349;47.552;8.904;2023-04-25T13:58:16;1.50;;;1.27;;
8622;SDS011;4349;47.552;8.904;2023-04-25T14:00:43;1.67;;;1.30;;
8622;SDS011;4349;47.552;8.904;2023-04-25T14:03:12;1.10;;;1.10;;
8622;SDS011;4349;47.552;8.904;2023-04-25T14:05:39;1.10;;;1.10;;
8622;SDS011;4349;47.552;8.904;2023-04-25T14:08:07;1.20;;;1.20;;
8622;SDS011;4349;47.552;8.904;2023-04-25T14:10:35;1.20;;;1.20;;
8622;SDS011;4349;47.552;8.904;2023-04-25T14:13:04;2.20;;;1.30;;
8622;SDS011;4349;47.552;8.904;2023-04-25T14:15:35;1.07;;;1.07;;
8622;SDS011;4349;47.552;8.904;2023-04-25T14:18:03;1.00;;;1.00;;
8622;SDS011;4349;47.552;8.904;2023-04-25T14:20:31;1.00;;;1.00;;
8622;SDS011;4349;47.552;8.904;2023-04-25T14:22:59;1.03;;;1.03;;
8622;SDS011;4349;47.552;8.904;2023-04-25T14:25:27;1.13;;;1.03;;
8622;SDS011;4349;47.552;8.904;2023-04-25T14:27:54;0.93;;;0.93;;
8622;SDS011;4349;47.552;8.904;2023-04-25T14:30:23;1.23;;;1.17;;
8622;SDS011;4349;47.552;8.904;2023-04-25T14:32:50;1.07;;;1.07;;
8622;SDS011;4349;47.552;8.904;2023-04-25T14:35:18;1.13;;;1.07;;
8622;SDS011;4349;47.552;8.904;2023-04-25T14:37:45;1.40;;;1.30;;
8622;SDS011;4349;47.552;8.904;2023-04-25T14:40:13;1.10;;;1.10;;
8622;SDS011;4349;47.552;8.904;2023-04-25T14:42:41;1.30;;;1.30;;
8622;SDS011;4349;47.552;8.904;2023-04-25T14:45:09;1.30;;;1.30;;
8622;SDS011;4349;47.552;8.904;2023-04-25T14:47:38;1.30;;;1.30;;
8622;SDS011;4349;47.552;8.904;2023-04-25T14:50:07;1.20;;;1.20;;
8622;SDS011;4349;47.552;8.904;2023-04-25T14:52:34;1.30;;;1.20;;
8622;SDS011;4349;47.552;8.904;2023-04-25T14:55:02;1.40;;;1.30;;
8622;SDS011;4349;47.552;8.904;2023-04-25T14:57:31;1.43;;;1.33;;
8622;SDS011;4349;47.552;8.904;2023-04-25T14:59:59;1.10;;;1.10;;
8622;SDS011;4349;47.552;8.904;2023-04-25T15:02:27;1.40;;;1.40;;
8622;SDS011;4349;47.552;8.904;2023-04-25T15:04:56;1.20;;;1.20;;
8622;SDS011;4349;47.552;8.904;2023-04-25T15:07:23;1.10;;;1.10;;
8622;SDS011;4349;47.552;8.904;2023-04-25T15:09:51;0.97;;;0.97;;
8622;SDS011;4349;47.552;8.904;2023-04-25T15:12:22;1.00;;;1.00;;
8622;SDS011;4349;47.552;8.904;2023-04-25T15:14:49;1.00;;;1.00;;
8622;SDS011;4349;47.552;8.904;2023-04-25T15:17:16;0.90;;;0.90;;
8622;SDS011;4349;47.552;8.904;2023-04-25T15:19:44;0.90;;;0.90;;
8622;SDS011;4349;47.552;8.904;2023-04-25T15:22:13;1.07;;;1.07;;
8622;SDS011;4349;47.552;8.904;2023-04-25T15:24:40;1.70;;;1.10;;
8622;SDS011;4349;47.552;8.904;2023-04-25T15:27:07;1.10;;;1.10;;
8622;SDS011;4349;47.552;8.904;2023-04-25T15:29:35;1.20;;;1.20;;
8622;SDS011;4349;47.552;8.904;2023-04-25T15:32:03;1.20;;;1.20;;
8622;SDS011;4349;47.552;8.904;2023-04-25T15:34:30;1.20;;;1.20;;
8622;SDS011;4349;47.552;8.904;2023-04-25T15:37:00;1.30;;;1.30;;